sensor_id;sensor_type;location;lat;lon;timestamp;P1;durP1;ratioP1;P2;durP2;ratioP2
69327;SDS011;56472;52.114;5.492;2023-06-04T00:02:17;0.52;;;0.50;;
69327;SDS011;56472;52.114;5.492;2023-06-04T00:04:44;0.52;;;0.50;;
69327;SDS011;56472;52.114;5.492;2023-06-04T00:07:11;0.70;;;0.70;;
69327;SDS011;56472;52.114;5.492;2023-06-04T00:09:39;0.80;;;0.80;;
69327;SDS011;56472;52.114;5.492;2023-06-04T00:12:06;0.50;;;0.50;;
69327;SDS011;56472;52.114;5.492;2023-06-04T00:14:33;1.98;;;0.60;;
69327;SDS011;56472;52.114;5.492;2023-06-04T00:17:00;0.40;;;0.40;;
69327;SDS011;56472;52.114;5.492;2023-06-04T00:19:27;0.60;;;0.60;;
69327;SDS011;56472;52.114;5.492;2023-06-04T00:21:54;0.50;;;0.50;;
69327;SDS011;56472;52.114;5.492;2023-06-04T00:24:21;0.60;;;0.60;;
69327;SDS011;56472;52.114;5.492;2023-06-04T00:26:48;0.60;;;0.60;;
69327;SDS011;56472;52.114;5.492;2023-06-04T00:29:14;0.70;;;0.70;;
69327;SDS011;56472;52.114;5.492;2023-06-04T00:31:41;0.60;;;0.60;;
69327;SDS011;56472;52.114;5.492;2023-06-04T00:34:09;0.88;;;0.60;;
69327;SDS011;56472;52.114;5.492;2023-06-04T00:36:37;0.70;;;0.70;;
69327;SDS011;56472;52.114;5.492;2023-06-04T00:39:04;0.57;;;0.57;;
69327;SDS011;56472;52.114;5.492;2023-06-04T00:41:31;0.68;;;0.68;;
69327;SDS011;56472;52.114;5.492;2023-06-04T00:43:58;0.70;;;0.70;;
69327;SDS011;56472;52.114;5.492;2023-06-04T00:46:28;0.73;;;0.73;;
69327;SDS011;56472;52.114;5.492;2023-06-04T00:48:57;0.50;;;0.50;;
69327;SDS011;56472;52.114;5.492;2023-06-04T00:51:25;0.57;;;0.57;;
69327;SDS011;56472;52.114;5.492;2023-06-04T00:53:52;1.83;;;0.65;;
69327;SDS011;56472;52.114;5.492;2023-06-04T00:56:19;0.75;;;0.63;;
69327;SDS011;56472;52.114;5.492;2023-06-04T00:58:46;0.70;;;0.65;;
69327;SDS011;56472;52.114;5.492;2023-06-04T01:01:22;0.88;;;0.88;;
69327;SDS011;56472;52.114;5.492;2023-06-04T01:04:02;0.60;;;0.60;;
69327;SDS011;56472;52.114;5.492;2023-06-04T01:06:36;0.60;;;0.60;;
69327;SDS011;56472;52.114;5.492;2023-06-04T01:09:05;0.70;;;0.70;;
69327;SDS011;56472;52.114;5.492;2023-06-04T01:11:33;0.60;;;0.60;;
69327;SDS011;56472;52.114;5.492;2023-06-04T01:14:02;0.95;;;0.60;;
69327;SDS011;56472;52.114;5.492;2023-06-04T01:16:32;0.60;;;0.60;;
69327;SDS011;56472;52.114;5.492;2023-06-04T01:19:29;0.50;;;0.50;;
69327;SDS011;56472;52.114;5.492;2023-06-04T01:22:22;1.13;;;0.85;;
69327;SDS011;56472;52.114;5.492;2023-06-04T01:25:20;0.77;;;0.77;;
69327;SDS011;56472;52.114;5.492;2023-06-04T01:27:51;0.82;;;0.82;;
69327;SDS011;56472;52.114;5.492;2023-06-04T01:32:56;0.80;;;0.80;;
69327;SDS011;56472;52.114;5.492;2023-06-04T01:35:24;0.55;;;0.55;;
69327;SDS011;56472;52.114;5.492;2023-06-04T01:37:54;0.70;;;0.70;;
69327;SDS011;56472;52.114;5.492;2023-06-04T01:40:22;1.05;;;0.70;;
69327;SDS011;56472;52.114;5.492;2023-06-04T01:42:49;1.27;;;0.70;;
69327;SDS011;56472;52.114;5.492;2023-06-04T01:45:17;0.73;;;0.63;;
69327;SDS011;56472;52.114;5.492;2023-06-04T01:47:44;1.33;;;0.80;;
69327;SDS011;56472;52.114;5.492;2023-06-04T01:50:11;0.70;;;0.70;;
69327;SDS011;56472;52.114;5.492;2023-06-04T01:52:38;0.70;;;0.60;;
69327;SDS011;56472;52.114;5.492;2023-06-04T01:55:07;0.70;;;0.70;;
69327;SDS011;56472;52.114;5.492;2023-06-04T01:57:35;1.17;;;0.70;;
69327;SDS011;56472;52.114;5.492;2023-06-04T02:00:03;1.65;;;1.00;;
69327;SDS011;56472;52.114;5.492;2023-06-04T02:02:38;0.80;;;0.80;;
69327;SDS011;56472;52.114;5.492;2023-06-04T02:05:09;0.60;;;0.60;;
69327;SDS011;56472;52.114;5.492;2023-06-04T02:07:43;1.25;;;0.60;;
69327;SDS011;56472;52.114;5.492;2023-06-04T02:10:12;0.60;;;0.60;;
69327;SDS011;56472;52.114;5.492;2023-06-04T02:15:25;0.40;;;0.40;;
69327;SDS011;56472;52.114;5.492;2023-06-04T02:17:54;0.60;;;0.60;;
69327;SDS011;56472;52.114;5.492;2023-06-04T02:20:26;0.55;;;0.55;;
69327;SDS011;56472;52.114;5.492;2023-06-04T02:22:56;0.70;;;0.70;;
69327;SDS011;56472;52.114;5.492;2023-06-04T02:25:25;0.63;;;0.63;;
69327;SDS011;56472;52.114;5.492;2023-06-04T02:27:52;1.15;;;0.70;;
69327;SDS011;56472;52.114;5.492;2023-06-04T02:30:19;0.70;;;0.70;;
69327;SDS011;56472;52.114;5.492;2023-06-04T02:32:46;0.60;;;0.60;;
69327;SDS011;56472;52.114;5.492;2023-06-04T02:35:18;0.50;;;0.50;;
69327;SDS011;56472;52.114;5.492;2023-06-04T02:37:47;0.60;;;0.60;;
69327;SDS011;56472;52.114;5.492;2023-06-04T02:40:14;1.15;;;0.80;;
69327;SDS011;56472;52.114;5.492;2023-06-04T02:42:41;1.30;;;0.70;;
69327;SDS011;56472;52.114;5.492;2023-06-04T02:45:09;1.30;;;0.82;;
69327;SDS011;56472;52.114;5.492;2023-06-04T02:47:37;0.75;;;0.75;;
69327;SDS011;56472;52.114;5.492;2023-06-04T02:50:04;0.75;;;0.75;;
69327;SDS011;56472;52.114;5.492;2023-06-04T02:52:32;2.28;;;0.82;;
69327;SDS011;56472;52.114;5.492;2023-06-04T02:54:59;0.60;;;0.60;;
69327;SDS011;56472;52.114;5.492;2023-06-04T02:57:26;0.70;;;0.70;;
69327;SDS011;56472;52.114;5.492;2023-06-04T02:59:53;1.27;;;0.50;;
69327;SDS011;56472;52.114;5.492;2023-06-04T03:02:22;0.60;;;0.60;;
69327;SDS011;56472;52.114;5.492;2023-06-04T03:04:49;0.88;;;0.88;;
69327;SDS011;56472;52.114;5.492;2023-06-04T03:07:17;0.93;;;0.65;;
69327;SDS011;56472;52.114;5.492;2023-06-04T03:09:49;0.70;;;0.70;;
69327;SDS011;56472;52.114;5.492;2023-06-04T03:12:16;0.60;;;0.60;;
69327;SDS011;56472;52.114;5.492;2023-06-04T03:14:43;0.70;;;0.70;;
69327;SDS011;56472;52.114;5.492;2023-06-04T03:17:10;0.60;;;0.60;;
69327;SDS011;56472;52.114;5.492;2023-06-04T03:19:38;0.70;;;0.57;;
69327;SDS011;56472;52.114;5.492;2023-06-04T03:22:07;0.50;;;0.50;;
69327;SDS011;56472;52.114;5.492;2023-06-04T03:24:35;0.50;;;0.50;;
69327;SDS011;56472;52.114;5.492;2023-06-04T03:27:03;0.60;;;0.60;;
69327;SDS011;56472;52.114;5.492;2023-06-04T03:29:32;0.60;;;0.60;;
69327;SDS011;56472;52.114;5.492;2023-06-04T03:32:02;0.75;;;0.70;;
69327;SDS011;56472;52.114;5.492;2023-06-04T03:34:31;4.75;;;0.60;;
69327;SDS011;56472;52.114;5.492;2023-06-04T03:37:01;0.68;;;0.68;;
69327;SDS011;56472;52.114;5.492;2023-06-04T03:39:33;0.63;;;0.63;;
69327;SDS011;56472;52.114;5.492;2023-06-04T03:42:03;0.63;;;0.60;;
69327;SDS011;56472;52.114;5.492;2023-06-04T03:44:32;0.47;;;0.47;;
69327;SDS011;56472;52.114;5.492;2023-06-04T03:46:59;0.57;;;0.57;;
69327;SDS011;56472;52.114;5.492;2023-06-04T03:49:27;0.70;;;0.70;;
69327;SDS011;56472;52.114;5.492;2023-06-04T03:51:54;0.60;;;0.60;;
69327;SDS011;56472;52.114;5.492;2023-06-04T03:54:22;0.73;;;0.50;;
69327;SDS011;56472;52.114;5.492;2023-06-04T03:56:50;0.95;;;0.52;;
69327;SDS011;56472;52.114;5.492;2023-06-04T03:59:17;0.70;;;0.70;;
69327;SDS011;56472;52.114;5.492;2023-06-04T04:01:45;0.65;;;0.65;;
69327;SDS011;56472;52.114;5.492;2023-06-04T04:04:12;1.25;;;0.60;;
69327;SDS011;56472;52.114;5.492;2023-06-04T04:06:39;0.70;;;0.70;;
69327;SDS011;56472;52.114;5.492;2023-06-04T04:09:06;1.13;;;0.60;;
69327;SDS011;56472;52.114;5.492;2023-06-04T04:11:35;0.57;;;0.57;;
69327;SDS011;56472;52.114;5.492;2023-06-04T04:14:02;0.60;;;0.60;;
69327;SDS011;56472;52.114;5.492;2023-06-04T04:16:30;0.60;;;0.60;;
69327;SDS011;56472;52.114;5.492;2023-06-04T04:18:57;1.10;;;0.60;;
69327;SDS011;56472;52.114;5.492;2023-06-04T04:21:24;0.70;;;0.70;;
69327;SDS011;56472;52.114;5.492;2023-06-04T04:23:51;0.60;;;0.60;;
69327;SDS011;56472;52.114;5.492;2023-06-04T04:26:19;0.60;;;0.60;;
69327;SDS011;56472;52.114;5.492;2023-06-04T04:28:50;0.65;;;0.65;;
69327;SDS011;56472;52.114;5.492;2023-06-04T04:31:19;1.15;;;0.65;;
69327;SDS011;56472;52.114;5.492;2023-06-04T04:33:49;0.60;;;0.60;;
69327;SDS011;56472;52.114;5.492;2023-06-04T04:36:18;0.50;;;0.50;;
69327;SDS011;56472;52.114;5.492;2023-06-04T04:38:49;0.63;;;0.63;;
69327;SDS011;56472;52.114;5.492;2023-06-04T04:41:23;0.63;;;0.63;;
69327;SDS011;56472;52.114;5.492;2023-06-04T04:43:53;0.45;;;0.45;;
69327;SDS011;56472;52.114;5.492;2023-06-04T04:46:27;0.80;;;0.80;;
69327;SDS011;56472;52.114;5.492;2023-06-04T04:48:54;0.50;;;0.50;;
69327;SDS011;56472;52.114;5.492;2023-06-04T04:51:21;0.65;;;0.65;;
69327;SDS011;56472;52.114;5.492;2023-06-04T04:53:50;0.57;;;0.57;;
69327;SDS011;56472;52.114;5.492;2023-06-04T04:56:17;2.08;;;0.90;;
69327;SDS011;56472;52.114;5.492;2023-06-04T04:58:47;6.68;;;0.90;;
69327;SDS011;56472;52.114;5.492;2023-06-04T05:01:15;2.63;;;1.00;;
69327;SDS011;56472;52.114;5.492;2023-06-04T05:03:43;1.05;;;1.00;;
69327;SDS011;56472;52.114;5.492;2023-06-04T05:06:12;0.80;;;0.80;;
69327;SDS011;56472;52.114;5.492;2023-06-04T05:08:40;1.20;;;1.10;;
69327;SDS011;56472;52.114;5.492;2023-06-04T05:11:09;0.98;;;0.80;;
69327;SDS011;56472;52.114;5.492;2023-06-04T05:13:37;0.98;;;0.98;;
69327;SDS011;56472;52.114;5.492;2023-06-04T05:16:05;1.75;;;1.48;;
69327;SDS011;56472;52.114;5.492;2023-06-04T05:18:39;3.65;;;1.23;;
69327;SDS011;56472;52.114;5.492;2023-06-04T05:21:10;3.33;;;1.25;;
69327;SDS011;56472;52.114;5.492;2023-06-04T05:23:43;3.78;;;1.20;;
69327;SDS011;56472;52.114;5.492;2023-06-04T05:26:15;2.65;;;1.27;;
69327;SDS011;56472;52.114;5.492;2023-06-04T05:28:43;1.38;;;1.00;;
69327;SDS011;56472;52.114;5.492;2023-06-04T05:31:12;6.72;;;1.10;;
69327;SDS011;56472;52.114;5.492;2023-06-04T05:33:40;1.00;;;0.90;;
69327;SDS011;56472;52.114;5.492;2023-06-04T05:38:46;1.48;;;1.10;;
69327;SDS011;56472;52.114;5.492;2023-06-04T05:41:16;1.35;;;1.00;;
69327;SDS011;56472;52.114;5.492;2023-06-04T05:43:43;2.72;;;1.40;;
69327;SDS011;56472;52.114;5.492;2023-06-04T05:46:14;1.88;;;1.40;;
69327;SDS011;56472;52.114;5.492;2023-06-04T05:48:42;3.17;;;1.08;;
69327;SDS011;56472;52.114;5.492;2023-06-04T05:51:09;1.85;;;0.93;;
69327;SDS011;56472;52.114;5.492;2023-06-04T05:53:38;3.13;;;1.25;;
69327;SDS011;56472;52.114;5.492;2023-06-04T05:56:05;3.17;;;1.25;;
69327;SDS011;56472;52.114;5.492;2023-06-04T05:58:33;2.03;;;1.05;;
69327;SDS011;56472;52.114;5.492;2023-06-04T06:01:01;4.10;;;1.30;;
69327;SDS011;56472;52.114;5.492;2023-06-04T06:03:29;3.85;;;1.50;;
69327;SDS011;56472;52.114;5.492;2023-06-04T06:05:57;4.13;;;0.95;;
69327;SDS011;56472;52.114;5.492;2023-06-04T06:08:24;0.93;;;0.93;;
69327;SDS011;56472;52.114;5.492;2023-06-04T06:10:52;1.08;;;1.00;;
69327;SDS011;56472;52.114;5.492;2023-06-04T06:13:19;1.63;;;0.80;;
69327;SDS011;56472;52.114;5.492;2023-06-04T06:15:47;0.90;;;0.90;;
69327;SDS011;56472;52.114;5.492;2023-06-04T06:18:19;0.93;;;0.93;;
69327;SDS011;56472;52.114;5.492;2023-06-04T06:20:46;1.95;;;1.00;;
69327;SDS011;56472;52.114;5.492;2023-06-04T06:23:13;2.25;;;1.10;;
69327;SDS011;56472;52.114;5.492;2023-06-04T06:25:43;0.77;;;0.77;;
69327;SDS011;56472;52.114;5.492;2023-06-04T06:28:20;1.05;;;0.90;;
69327;SDS011;56472;52.114;5.492;2023-06-04T06:30:48;1.17;;;0.80;;
69327;SDS011;56472;52.114;5.492;2023-06-04T06:33:15;1.08;;;0.98;;
69327;SDS011;56472;52.114;5.492;2023-06-04T06:35:42;2.05;;;1.05;;
69327;SDS011;56472;52.114;5.492;2023-06-04T06:38:12;1.08;;;0.98;;
69327;SDS011;56472;52.114;5.492;2023-06-04T06:40:43;1.20;;;0.80;;
69327;SDS011;56472;52.114;5.492;2023-06-04T06:43:10;1.58;;;0.85;;
69327;SDS011;56472;52.114;5.492;2023-06-04T06:45:37;3.15;;;0.80;;
69327;SDS011;56472;52.114;5.492;2023-06-04T06:48:04;0.93;;;0.82;;
69327;SDS011;56472;52.114;5.492;2023-06-04T06:50:31;2.05;;;0.85;;
69327;SDS011;56472;52.114;5.492;2023-06-04T06:52:59;0.77;;;0.77;;
69327;SDS011;56472;52.114;5.492;2023-06-04T06:55:26;1.50;;;0.90;;
69327;SDS011;56472;52.114;5.492;2023-06-04T06:57:53;0.75;;;0.60;;
69327;SDS011;56472;52.114;5.492;2023-06-04T07:00:22;1.92;;;0.85;;
69327;SDS011;56472;52.114;5.492;2023-06-04T07:02:50;1.58;;;1.00;;
69327;SDS011;56472;52.114;5.492;2023-06-04T07:05:17;0.90;;;0.85;;
69327;SDS011;56472;52.114;5.492;2023-06-04T07:07:44;0.70;;;0.70;;
69327;SDS011;56472;52.114;5.492;2023-06-04T07:10:12;1.00;;;0.90;;
69327;SDS011;56472;52.114;5.492;2023-06-04T07:12:40;1.25;;;0.70;;
69327;SDS011;56472;52.114;5.492;2023-06-04T07:15:09;0.70;;;0.70;;
69327;SDS011;56472;52.114;5.492;2023-06-04T07:17:36;1.15;;;0.70;;
69327;SDS011;56472;52.114;5.492;2023-06-04T07:20:03;0.88;;;0.82;;
69327;SDS011;56472;52.114;5.492;2023-06-04T07:22:33;1.27;;;0.60;;
69327;SDS011;56472;52.114;5.492;2023-06-04T07:25:01;1.23;;;0.80;;
69327;SDS011;56472;52.114;5.492;2023-06-04T07:27:28;0.60;;;0.60;;
69327;SDS011;56472;52.114;5.492;2023-06-04T07:29:55;0.73;;;0.73;;
69327;SDS011;56472;52.114;5.492;2023-06-04T07:32:21;0.60;;;0.60;;
69327;SDS011;56472;52.114;5.492;2023-06-04T07:34:48;1.55;;;0.80;;
69327;SDS011;56472;52.114;5.492;2023-06-04T07:37:15;0.60;;;0.60;;
69327;SDS011;56472;52.114;5.492;2023-06-04T07:39:42;1.30;;;0.73;;
69327;SDS011;56472;52.114;5.492;2023-06-04T07:42:09;0.50;;;0.50;;
69327;SDS011;56472;52.114;5.492;2023-06-04T07:44:36;0.77;;;0.77;;
69327;SDS011;56472;52.114;5.492;2023-06-04T07:47:04;0.65;;;0.60;;
69327;SDS011;56472;52.114;5.492;2023-06-04T07:49:31;0.88;;;0.70;;
69327;SDS011;56472;52.114;5.492;2023-06-04T07:51:58;0.95;;;0.80;;
69327;SDS011;56472;52.114;5.492;2023-06-04T07:54:26;0.50;;;0.50;;
69327;SDS011;56472;52.114;5.492;2023-06-04T07:56:53;0.60;;;0.60;;
69327;SDS011;56472;52.114;5.492;2023-06-04T07:59:22;0.70;;;0.70;;
69327;SDS011;56472;52.114;5.492;2023-06-04T08:01:50;0.70;;;0.70;;
69327;SDS011;56472;52.114;5.492;2023-06-04T08:04:18;0.63;;;0.63;;
69327;SDS011;56472;52.114;5.492;2023-06-04T08:06:45;0.60;;;0.60;;
69327;SDS011;56472;52.114;5.492;2023-06-04T08:09:13;1.15;;;0.70;;
69327;SDS011;56472;52.114;5.492;2023-06-04T08:11:41;0.73;;;0.50;;
69327;SDS011;56472;52.114;5.492;2023-06-04T08:14:09;0.60;;;0.60;;
69327;SDS011;56472;52.114;5.492;2023-06-04T08:16:37;0.75;;;0.60;;
69327;SDS011;56472;52.114;5.492;2023-06-04T08:19:04;0.60;;;0.60;;
69327;SDS011;56472;52.114;5.492;2023-06-04T08:21:33;0.77;;;0.77;;
69327;SDS011;56472;52.114;5.492;2023-06-04T08:24:01;0.63;;;0.57;;
69327;SDS011;56472;52.114;5.492;2023-06-04T08:26:29;2.33;;;0.80;;
69327;SDS011;56472;52.114;5.492;2023-06-04T08:28:57;0.50;;;0.50;;
69327;SDS011;56472;52.114;5.492;2023-06-04T08:31:24;0.60;;;0.60;;
69327;SDS011;56472;52.114;5.492;2023-06-04T08:33:51;0.65;;;0.63;;
69327;SDS011;56472;52.114;5.492;2023-06-04T08:36:18;0.80;;;0.70;;
69327;SDS011;56472;52.114;5.492;2023-06-04T08:38:45;0.50;;;0.50;;
69327;SDS011;56472;52.114;5.492;2023-06-04T08:41:28;0.88;;;0.70;;
69327;SDS011;56472;52.114;5.492;2023-06-04T08:43:56;0.70;;;0.68;;
69327;SDS011;56472;52.114;5.492;2023-06-04T08:46:28;0.65;;;0.65;;
69327;SDS011;56472;52.114;5.492;2023-06-04T08:49:01;0.60;;;0.60;;
69327;SDS011;56472;52.114;5.492;2023-06-04T08:51:33;0.50;;;0.50;;
69327;SDS011;56472;52.114;5.492;2023-06-04T08:54:04;0.60;;;0.60;;
69327;SDS011;56472;52.114;5.492;2023-06-04T08:56:32;0.40;;;0.40;;
69327;SDS011;56472;52.114;5.492;2023-06-04T08:59:00;0.90;;;0.75;;
69327;SDS011;56472;52.114;5.492;2023-06-04T09:01:31;0.50;;;0.50;;
69327;SDS011;56472;52.114;5.492;2023-06-04T09:04:01;0.50;;;0.50;;
69327;SDS011;56472;52.114;5.492;2023-06-04T09:06:32;0.45;;;0.45;;
69327;SDS011;56472;52.114;5.492;2023-06-04T09:09:01;0.65;;;0.65;;
69327;SDS011;56472;52.114;5.492;2023-06-04T09:11:39;0.68;;;0.65;;
69327;SDS011;56472;52.114;5.492;2023-06-04T09:14:21;0.68;;;0.68;;
69327;SDS011;56472;52.114;5.492;2023-06-04T09:16:49;0.60;;;0.60;;
69327;SDS011;56472;52.114;5.492;2023-06-04T09:19:18;0.55;;;0.55;;
69327;SDS011;56472;52.114;5.492;2023-06-04T09:21:53;0.70;;;0.70;;
69327;SDS011;56472;52.114;5.492;2023-06-04T09:24:24;0.70;;;0.70;;
69327;SDS011;56472;52.114;5.492;2023-06-04T09:26:52;0.40;;;0.40;;
69327;SDS011;56472;52.114;5.492;2023-06-04T09:29:19;0.75;;;0.70;;
69327;SDS011;56472;52.114;5.492;2023-06-04T09:31:47;0.50;;;0.50;;
69327;SDS011;56472;52.114;5.492;2023-06-04T09:34:27;1.48;;;0.60;;
69327;SDS011;56472;52.114;5.492;2023-06-04T09:36:55;0.40;;;0.40;;
69327;SDS011;56472;52.114;5.492;2023-06-04T09:39:22;0.90;;;0.57;;
69327;SDS011;56472;52.114;5.492;2023-06-04T09:41:59;0.50;;;0.50;;
69327;SDS011;56472;52.114;5.492;2023-06-04T09:44:27;0.40;;;0.40;;
69327;SDS011;56472;52.114;5.492;2023-06-04T09:46:58;0.60;;;0.60;;
69327;SDS011;56472;52.114;5.492;2023-06-04T09:49:25;0.50;;;0.50;;
69327;SDS011;56472;52.114;5.492;2023-06-04T09:51:52;0.63;;;0.50;;
69327;SDS011;56472;52.114;5.492;2023-06-04T09:54:19;2.33;;;0.60;;
69327;SDS011;56472;52.114;5.492;2023-06-04T09:56:46;0.50;;;0.50;;
69327;SDS011;56472;52.114;5.492;2023-06-04T09:59:13;0.40;;;0.40;;
69327;SDS011;56472;52.114;5.492;2023-06-04T10:01:41;0.32;;;0.32;;
69327;SDS011;56472;52.114;5.492;2023-06-04T10:04:09;0.70;;;0.70;;
69327;SDS011;56472;52.114;5.492;2023-06-04T10:06:39;0.68;;;0.68;;
69327;SDS011;56472;52.114;5.492;2023-06-04T10:09:08;0.55;;;0.55;;
69327;SDS011;56472;52.114;5.492;2023-06-04T10:11:47;0.77;;;0.65;;
69327;SDS011;56472;52.114;5.492;2023-06-04T10:14:23;0.50;;;0.50;;
69327;SDS011;56472;52.114;5.492;2023-06-04T10:16:54;0.50;;;0.50;;
69327;SDS011;56472;52.114;5.492;2023-06-04T10:19:24;0.55;;;0.50;;
69327;SDS011;56472;52.114;5.492;2023-06-04T10:21:53;0.50;;;0.50;;
69327;SDS011;56472;52.114;5.492;2023-06-04T10:24:20;0.60;;;0.60;;
69327;SDS011;56472;52.114;5.492;2023-06-04T10:26:49;0.55;;;0.55;;
69327;SDS011;56472;52.114;5.492;2023-06-04T10:29:19;0.88;;;0.50;;
69327;SDS011;56472;52.114;5.492;2023-06-04T10:31:47;0.70;;;0.50;;
69327;SDS011;56472;52.114;5.492;2023-06-04T10:34:19;0.40;;;0.40;;
69327;SDS011;56472;52.114;5.492;2023-06-04T10:36:46;0.73;;;0.45;;
69327;SDS011;56472;52.114;5.492;2023-06-04T10:39:13;1.20;;;0.57;;
69327;SDS011;56472;52.114;5.492;2023-06-04T10:41:40;1.23;;;0.70;;
69327;SDS011;56472;52.114;5.492;2023-06-04T10:44:07;0.65;;;0.63;;
69327;SDS011;56472;52.114;5.492;2023-06-04T10:46:38;0.52;;;0.52;;
69327;SDS011;56472;52.114;5.492;2023-06-04T10:49:10;0.60;;;0.60;;
69327;SDS011;56472;52.114;5.492;2023-06-04T10:51:41;0.60;;;0.60;;
69327;SDS011;56472;52.114;5.492;2023-06-04T10:54:10;0.40;;;0.40;;
69327;SDS011;56472;52.114;5.492;2023-06-04T10:56:36;0.60;;;0.60;;
69327;SDS011;56472;52.114;5.492;2023-06-04T10:59:14;1.98;;;1.10;;
69327;SDS011;56472;52.114;5.492;2023-06-04T11:01:42;0.40;;;0.40;;
69327;SDS011;56472;52.114;5.492;2023-06-04T11:04:22;0.52;;;0.52;;
69327;SDS011;56472;52.114;5.492;2023-06-04T11:09:37;0.60;;;0.60;;
69327;SDS011;56472;52.114;5.492;2023-06-04T11:12:14;1.13;;;0.60;;
69327;SDS011;56472;52.114;5.492;2023-06-04T11:14:41;1.92;;;0.50;;
69327;SDS011;56472;52.114;5.492;2023-06-04T11:17:20;0.43;;;0.43;;
69327;SDS011;56472;52.114;5.492;2023-06-04T11:19:47;0.70;;;0.70;;
69327;SDS011;56472;52.114;5.492;2023-06-04T11:22:14;0.93;;;0.52;;
69327;SDS011;56472;52.114;5.492;2023-06-04T11:24:41;0.55;;;0.55;;
69327;SDS011;56472;52.114;5.492;2023-06-04T11:27:08;0.57;;;0.52;;
69327;SDS011;56472;52.114;5.492;2023-06-04T11:29:48;1.17;;;0.63;;
69327;SDS011;56472;52.114;5.492;2023-06-04T11:32:23;0.60;;;0.60;;
69327;SDS011;56472;52.114;5.492;2023-06-04T11:34:51;0.50;;;0.50;;
69327;SDS011;56472;52.114;5.492;2023-06-04T11:37:27;1.15;;;0.70;;
69327;SDS011;56472;52.114;5.492;2023-06-04T11:39:57;0.60;;;0.60;;
69327;SDS011;56472;52.114;5.492;2023-06-04T11:42:23;0.70;;;0.70;;
69327;SDS011;56472;52.114;5.492;2023-06-04T11:44:55;0.57;;;0.57;;
69327;SDS011;56472;52.114;5.492;2023-06-04T11:47:23;1.05;;;0.60;;
69327;SDS011;56472;52.114;5.492;2023-06-04T11:49:54;0.70;;;0.70;;
69327;SDS011;56472;52.114;5.492;2023-06-04T11:52:24;0.63;;;0.63;;
69327;SDS011;56472;52.114;5.492;2023-06-04T11:54:51;0.85;;;0.70;;
69327;SDS011;56472;52.114;5.492;2023-06-04T11:57:18;0.70;;;0.63;;
69327;SDS011;56472;52.114;5.492;2023-06-04T11:59:45;0.73;;;0.50;;
69327;SDS011;56472;52.114;5.492;2023-06-04T12:02:12;0.60;;;0.55;;
69327;SDS011;56472;52.114;5.492;2023-06-04T12:04:39;0.70;;;0.70;;
69327;SDS011;56472;52.114;5.492;2023-06-04T12:07:06;0.82;;;0.70;;
69327;SDS011;56472;52.114;5.492;2023-06-04T12:09:35;0.70;;;0.70;;
69327;SDS011;56472;52.114;5.492;2023-06-04T12:12:05;0.60;;;0.60;;
69327;SDS011;56472;52.114;5.492;2023-06-04T12:14:33;0.60;;;0.60;;
69327;SDS011;56472;52.114;5.492;2023-06-04T12:17:07;0.60;;;0.60;;
69327;SDS011;56472;52.114;5.492;2023-06-04T12:19:46;0.77;;;0.57;;
69327;SDS011;56472;52.114;5.492;2023-06-04T12:22:14;0.43;;;0.43;;
69327;SDS011;56472;52.114;5.492;2023-06-04T12:24:51;0.80;;;0.80;;
69327;SDS011;56472;52.114;5.492;2023-06-04T12:27:20;0.50;;;0.50;;
69327;SDS011;56472;52.114;5.492;2023-06-04T12:29:59;0.55;;;0.55;;
69327;SDS011;56472;52.114;5.492;2023-06-04T12:32:27;0.68;;;0.65;;
69327;SDS011;56472;52.114;5.492;2023-06-04T12:34:54;0.68;;;0.68;;
69327;SDS011;56472;52.114;5.492;2023-06-04T12:37:22;0.77;;;0.77;;
69327;SDS011;56472;52.114;5.492;2023-06-04T12:39:51;0.93;;;0.75;;
69327;SDS011;56472;52.114;5.492;2023-06-04T12:42:19;0.57;;;0.57;;
69327;SDS011;56472;52.114;5.492;2023-06-04T12:44:46;0.90;;;0.90;;
69327;SDS011;56472;52.114;5.492;2023-06-04T12:47:13;0.60;;;0.60;;
69327;SDS011;56472;52.114;5.492;2023-06-04T12:49:44;0.70;;;0.70;;
69327;SDS011;56472;52.114;5.492;2023-06-04T12:52:11;1.70;;;0.90;;
69327;SDS011;56472;52.114;5.492;2023-06-04T12:54:41;0.50;;;0.50;;
69327;SDS011;56472;52.114;5.492;2023-06-04T12:57:08;0.55;;;0.55;;
69327;SDS011;56472;52.114;5.492;2023-06-04T12:59:35;0.73;;;0.60;;
69327;SDS011;56472;52.114;5.492;2023-06-04T13:02:02;1.48;;;0.88;;
69327;SDS011;56472;52.114;5.492;2023-06-04T13:04:29;0.50;;;0.50;;
69327;SDS011;56472;52.114;5.492;2023-06-04T13:06:56;0.95;;;0.50;;
69327;SDS011;56472;52.114;5.492;2023-06-04T13:09:26;0.70;;;0.70;;
69327;SDS011;56472;52.114;5.492;2023-06-04T13:11:55;0.60;;;0.60;;
69327;SDS011;56472;52.114;5.492;2023-06-04T13:14:22;0.60;;;0.60;;
69327;SDS011;56472;52.114;5.492;2023-06-04T13:16:49;0.70;;;0.70;;
69327;SDS011;56472;52.114;5.492;2023-06-04T13:19:18;0.85;;;0.57;;
69327;SDS011;56472;52.114;5.492;2023-06-04T13:21:46;0.68;;;0.68;;
69327;SDS011;56472;52.114;5.492;2023-06-04T13:24:13;1.20;;;0.82;;
69327;SDS011;56472;52.114;5.492;2023-06-04T13:26:42;2.08;;;0.82;;
69327;SDS011;56472;52.114;5.492;2023-06-04T13:29:08;0.70;;;0.70;;
69327;SDS011;56472;52.114;5.492;2023-06-04T13:31:37;0.93;;;0.85;;
69327;SDS011;56472;52.114;5.492;2023-06-04T13:34:06;1.77;;;0.82;;
69327;SDS011;56472;52.114;5.492;2023-06-04T13:36:52;0.80;;;0.80;;
69327;SDS011;56472;52.114;5.492;2023-06-04T13:39:18;1.55;;;0.77;;
69327;SDS011;56472;52.114;5.492;2023-06-04T13:41:45;0.82;;;0.77;;
69327;SDS011;56472;52.114;5.492;2023-06-04T13:44:12;3.17;;;0.70;;
69327;SDS011;56472;52.114;5.492;2023-06-04T13:46:40;0.88;;;0.70;;
69327;SDS011;56472;52.114;5.492;2023-06-04T13:49:08;0.70;;;0.70;;
69327;SDS011;56472;52.114;5.492;2023-06-04T13:51:35;1.00;;;1.00;;
69327;SDS011;56472;52.114;5.492;2023-06-04T13:54:02;3.85;;;0.85;;
69327;SDS011;56472;52.114;5.492;2023-06-04T13:56:29;1.23;;;0.90;;
69327;SDS011;56472;52.114;5.492;2023-06-04T13:58:56;2.78;;;0.90;;
69327;SDS011;56472;52.114;5.492;2023-06-04T14:01:23;0.80;;;0.80;;
69327;SDS011;56472;52.114;5.492;2023-06-04T14:03:50;1.10;;;0.80;;
69327;SDS011;56472;52.114;5.492;2023-06-04T14:06:18;2.75;;;0.80;;
69327;SDS011;56472;52.114;5.492;2023-06-04T14:08:45;1.02;;;0.80;;
69327;SDS011;56472;52.114;5.492;2023-06-04T14:11:12;0.98;;;0.90;;
69327;SDS011;56472;52.114;5.492;2023-06-04T14:13:39;1.25;;;0.82;;
69327;SDS011;56472;52.114;5.492;2023-06-04T14:16:07;0.88;;;0.88;;
69327;SDS011;56472;52.114;5.492;2023-06-04T14:18:34;1.00;;;0.90;;
69327;SDS011;56472;52.114;5.492;2023-06-04T14:21:01;0.75;;;0.75;;
69327;SDS011;56472;52.114;5.492;2023-06-04T14:23:28;0.73;;;0.73;;
69327;SDS011;56472;52.114;5.492;2023-06-04T14:25:55;0.98;;;0.90;;
69327;SDS011;56472;52.114;5.492;2023-06-04T14:28:22;1.00;;;1.00;;
69327;SDS011;56472;52.114;5.492;2023-06-04T14:30:49;0.85;;;0.85;;
69327;SDS011;56472;52.114;5.492;2023-06-04T14:33:16;0.77;;;0.77;;
69327;SDS011;56472;52.114;5.492;2023-06-04T14:35:43;1.73;;;1.30;;
69327;SDS011;56472;52.114;5.492;2023-06-04T14:38:13;1.67;;;1.58;;
69327;SDS011;56472;52.114;5.492;2023-06-04T14:40:41;1.35;;;1.35;;
69327;SDS011;56472;52.114;5.492;2023-06-04T14:43:13;1.98;;;1.42;;
69327;SDS011;56472;52.114;5.492;2023-06-04T14:45:40;4.72;;;1.50;;
69327;SDS011;56472;52.114;5.492;2023-06-04T14:48:07;1.70;;;1.30;;
69327;SDS011;56472;52.114;5.492;2023-06-04T14:50:38;1.33;;;1.23;;
69327;SDS011;56472;52.114;5.492;2023-06-04T14:53:05;3.08;;;1.25;;
69327;SDS011;56472;52.114;5.492;2023-06-04T14:55:35;3.38;;;1.80;;
69327;SDS011;56472;52.114;5.492;2023-06-04T14:58:03;6.63;;;1.33;;
69327;SDS011;56472;52.114;5.492;2023-06-04T15:00:31;3.47;;;1.00;;
69327;SDS011;56472;52.114;5.492;2023-06-04T15:02:58;1.50;;;1.40;;
69327;SDS011;56472;52.114;5.492;2023-06-04T15:05:26;2.70;;;1.20;;
69327;SDS011;56472;52.114;5.492;2023-06-04T15:07:53;5.28;;;1.30;;
69327;SDS011;56472;52.114;5.492;2023-06-04T15:10:21;5.45;;;1.45;;